Slotergracht — PDBP — position and weather

sailwx.info

Track history (hours):
 
Tides and Currents Weather Stations Pressure Air Temp Water Temp Dewpoint Dewpoint Depression Visibility Wind Speed Wind Dir Waves Ship Positions

Slotergracht

Last reported at 2018-May-22 07:55 UTC. Time now 2018-May-23 10:35 UTC.
Position N 49°44' W 003°48'.

Length 168 m; beam 25 m.

Type: Cargo ship. MMSI: 246456000.

Date/timePositionNaut miles runAvg speedWind from/ knotsBaromVisibWave heightAir tempDewpointWater temp
2018-May-22 07:55N 49°44' W 003°48'718.2
2018-May-22 07:30N 49°47' W 003°38'918.8
2018-May-22 07:00N 49°51' W 003°25'1019.1
2018-May-22 06:31N 49°55' W 003°11'1019.2
2018-May-22 06:00N 49°59' W 002°58'918.9
2018-May-22 05:30N 50°02' W 002°44'1118.7
2018-May-22 04:57N 50°05' W 002°28'818.4
2018-May-22 04:30N 50°07' W 002°16'917.8
2018-May-22 04:00N 50°10' W 002°03'917.0
2018-May-22 03:30N 50°12' W 001°50'816.4
2018-May-22 03:00N 50°15' W 001°38'815.8
2018-May-22 02:30N 50°17' W 001°26'815.3
2018-May-22 02:00N 50°19' W 001°14'714.7
2018-May-22 01:30N 50°21' W 001°03'714.5
2018-May-22 01:00N 50°23' W 000°53'714.9
2018-May-22 00:30N 50°26' W 000°41'815.4
2018-May-22 00:00N 50°27' W 000°29'816.1
2018-May-21 23:30N 50°30' W 000°17'816.8
2018-May-21 23:00N 50°31' W 000°05'917.3
2018-May-21 22:30N 50°34' E 000°09'917.8
2018-May-21 22:00N 50°36' E 000°22'918.2
2018-May-21 21:30N 50°39' E 000°36'918.2
2018-May-21 21:00N 50°44' E 000°48'917.9
2018-May-21 20:30N 50°49' E 000°59'917.5
2018-May-21 20:00N 50°55' E 001°10'1016.9
2018-May-21 19:26N 51°01' E 001°21'716.2
2018-May-21 19:00N 51°06' E 001°30'815.6
2018-May-21 18:30N 51°11' E 001°39'815.2
2018-May-21 18:00N 51°16' E 001°47'816.0
2018-May-21 17:30N 51°23' E 001°54'816.3
2018-May-21 17:00N 51°30' E 002°01'816.7
2018-May-21 16:30N 51°36' E 002°10'917.1
2018-May-21 16:00N 51°42' E 002°20'917.7
2018-May-21 15:30N 51°49' E 002°29'1018.4
2018-May-21 14:59N 51°57' E 002°39'2418.9
2018-May-21 13:43N 52°15' E 003°04'419.0
2018-May-21 13:30N 52°18' E 003°08'1019.2
2018-May-21 13:00N 52°26' E 003°17'918.9
2018-May-21 12:31N 52°34' E 003°26'918.6
2018-May-21 12:01N 52°41' E 003°35'918.2
2018-May-21 11:30N 52°48' E 003°45'1417.4
2018-May-21 10:43N 52°58' E 004°01'416.9
2018-May-21 10:30N 53°00' E 004°06'816.6
2018-May-21 10:00N 53°06' E 004°16'915.8
2018-May-21 09:24N 53°13' E 004°26'615.8
2018-May-21 09:00N 53°19' E 004°30'815.9
2018-May-21 08:30N 53°26' E 004°36'816.0
2018-May-21 08:00N 53°31' E 004°46'816.8
2018-May-21 07:30N 53°34' E 004°59'917.6
2018-May-21 07:00N 53°37' E 005°13'918.5
2018-May-21 06:30N 53°40' E 005°28'918.6
2018-May-21 06:00N 53°43' E 005°43'1018.5
2018-May-21 05:29N 53°46' E 005°58'714.4
2018-May-21 05:00N 53°43' E 006°09'816.2
2018-May-21 04:30N 53°38' E 006°20'714.4
2018-May-21 03:59N 53°37' E 006°33'817.6
2018-May-21 03:31N 53°32' E 006°44'611.6
2018-May-21 03:00N 53°28' E 006°50'1 1.2
2018-May-21 02:30N 53°27' E 006°50'0 0.0
2018-May-21 01:58N 53°27' E 006°50'0 0.0
2018-May-21 01:25N 53°27' E 006°50'0 0.0
2018-May-21 00:58N 53°27' E 006°50'0 0.0
2018-May-21 00:25N 53°27' E 006°50'0 0.0
2018-May-20 23:58N 53°27' E 006°50'0 0.0
2018-May-20 23:28N 53°27' E 006°50'0 0.0
2018-May-20 22:58N 53°27' E 006°50'0 0.0
2018-May-20 22:28N 53°27' E 006°50'0 0.0
2018-May-20 21:58N 53°27' E 006°50'0 0.0
2018-May-20 21:28N 53°27' E 006°50'0 0.0
2018-May-20 20:55N 53°27' E 006°50'0 0.0
2018-May-20 20:19N 53°27' E 006°50'0 0.0
2018-May-20 19:55N 53°27' E 006°50'0 0.0
2018-May-20 19:18N 53°27' E 006°50'0 0.0
2018-May-20 19:00N 53°27' E 006°50'0 0.0
2018-May-20 18:30N 53°27' E 006°50'0 0.0
2018-May-20 18:00N 53°27' E 006°50'0 0.0
2018-May-20 17:24N 53°27' E 006°50'0 0.0
2018-May-20 17:00N 53°27' E 006°50'0 0.0
2018-May-20 16:24N 53°27' E 006°50'0 0.0
2018-May-20 16:00N 53°27' E 006°50'0 0.0
2018-May-20 15:30N 53°27' E 006°50'0 0.0
2018-May-20 14:57N 53°27' E 006°50'0 0.0
2018-May-20 14:30N 53°27' E 006°50'0 0.0
2018-May-20 14:00N 53°27' E 006°50'0 0.8
2018-May-20 13:30N 53°27' E 006°50'3 6.4
2018-May-20 13:00N 53°30' E 006°48'8210.5
2018-May-20 05:16N 54°51' E 006°34'517.4
2018-May-20 04:59N 54°56' E 006°34'817.4
2018-May-20 04:30N 55°05' E 006°35'917.5
2018-May-20 04:01N 55°13' E 006°38'917.5
2018-May-20 03:31N 55°22' E 006°41'917.5
2018-May-20 03:01N 55°30' E 006°48'917.6
2018-May-20 02:29N 55°38' E 006°55'917.8
2018-May-20 01:58N 55°46' E 007°02'817.8
2018-May-20 01:30N 55°54' E 007°08'917.7
2018-May-20 01:00N 56°02' E 007°15'2417.5
2018-May-19 23:38N 56°23' E 007°34'217.2
2018-May-19 23:30N 56°25' E 007°35'2317.2
2018-May-19 22:09N 56°47' E 007°53'417.1
2018-May-19 21:53N 56°51' E 007°57'1016.9
2018-May-19 21:18N 56°59' E 008°05'516.8
2018-May-19 20:59N 57°04' E 008°09'816.8
2018-May-19 20:29N 57°12' E 008°17'917.0
2018-May-19 19:56N 57°18' E 008°28'917.0
2018-May-19 19:23N 57°25' E 008°40'717.2
2018-May-19 18:59N 57°30' E 008°49'817.1
2018-May-19 18:31N 57°35' E 009°01'917.3
2018-May-19 18:00N 57°39' E 009°16'917.3
2018-May-19 17:30N 57°42' E 009°31'917.3
2018-May-19 17:00N 57°45' E 009°46'917.6
2018-May-19 16:30N 57°48' E 010°02'817.4
2018-May-19 16:00N 57°48' E 010°18'917.4
2018-May-19 15:31N 57°49' E 010°34'816.3
2018-May-19 15:01N 57°46' E 010°49'510.5
2018-May-19 14:31N 57°41' E 010°47'611.5
2018-May-19 14:00N 57°39' E 010°37'0 0.2
2018-May-19 13:30N 57°39' E 010°37'0 0.0
2018-May-19 13:00N 57°39' E 010°37'0 0.0
2018-May-19 12:30N 57°39' E 010°37'0 0.0
2018-May-19 12:00N 57°39' E 010°37'0 0.0
2018-May-19 11:30N 57°39' E 010°37'0 0.0
2018-May-19 11:00N 57°39' E 010°37'0 0.0
2018-May-19 10:30N 57°39' E 010°37'0 0.0
2018-May-19 10:00N 57°39' E 010°37'0 0.0
2018-May-19 09:30N 57°39' E 010°37'0 0.0
2018-May-19 09:00N 57°39' E 010°37'0 0.0
2018-May-19 08:30N 57°39' E 010°37'0 0.0
2018-May-19 08:00N 57°39' E 010°37'0 0.1
2018-May-19 07:30N 57°39' E 010°37'0 0.1
2018-May-19 07:00N 57°39' E 010°37'0 0.0
2018-May-19 06:30N 57°39' E 010°37'0 0.0
2018-May-19 06:00N 57°39' E 010°37'0 0.0
2018-May-19 05:30N 57°39' E 010°37'0 0.0
2018-May-19 05:00N 57°39' E 010°37'0 0.0
2018-May-19 04:30N 57°39' E 010°37'0 0.1
2018-May-19 04:00N 57°39' E 010°37'3 6.4
2018-May-19 03:31N 57°38' E 010°43'814.9
2018-May-19 03:00N 57°36' E 010°56'815.2
2018-May-19 02:31N 57°34' E 011°10'714.7
2018-May-19 02:01N 57°30' E 011°22'713.8
2018-May-19 01:30N 57°24' E 011°29'714.1
2018-May-19 01:00N 57°18' E 011°33'714.7
2018-May-19 00:30N 57°11' E 011°38'714.5
2018-May-19 00:00N 57°04' E 011°42'714.4
2018-May-18 23:30N 56°57' E 011°47'714.4
2018-May-18 23:00N 56°51' E 011°52'713.9
2018-May-18 22:29N 56°44' E 011°54'714.0
2018-May-18 22:00N 56°38' E 011°47'7813.3
2018-May-18 16:07N 55°24' E 011°00'214.9
2018-May-18 16:00N 55°23' E 011°02'714.9
2018-May-18 15:30N 55°16' E 011°05'713.1
2018-May-18 15:00N 55°10' E 011°01'917.2
2018-May-18 14:30N 55°01' E 010°59'816.1
2018-May-18 14:00N 54°54' E 010°52'714.8
2018-May-18 13:30N 54°47' E 010°49'713.9
2018-May-18 13:00N 54°40' E 010°49'815.8
2018-May-18 12:30N 54°36' E 011°00'815.2
2018-May-18 12:00N 54°35' E 011°13'815.8
2018-May-18 11:30N 54°32' E 011°26'815.2
2018-May-18 11:00N 54°29' E 011°38'714.4
2018-May-18 10:30N 54°26' E 011°50'814.8
2018-May-18 09:58N 54°26' E 012°03'1413.3
2018-May-18 08:54N 54°37' E 012°19'4015.0
2018-May-18 06:14N 54°55' E 013°21'615.5
2018-May-18 05:53N 54°57' E 013°30'615.4
2018-May-18 05:30N 54°59' E 013°39'1015.3
2018-May-18 04:52N 55°02' E 013°55'716.0
2018-May-18 04:24N 55°06' E 014°07'615.5
2018-May-18 04:00N 55°11' E 014°13'815.5
2018-May-18 03:30N 55°17' E 014°21'815.6
2018-May-18 03:00N 55°23' E 014°30'815.4
2018-May-18 02:30N 55°28' E 014°40'815.4
2018-May-18 02:00N 55°32' E 014°52'815.5
2018-May-18 01:30N 55°36' E 015°04'815.4
2018-May-18 01:00N 55°40' E 015°15'815.4
2018-May-18 00:30N 55°44' E 015°27'815.2
2018-May-18 00:00N 55°47' E 015°39'815.7
2018-May-17 23:30N 55°51' E 015°51'815.8
2018-May-17 23:00N 55°55' E 016°03'815.7
2018-May-17 22:30N 55°59' E 016°15'816.1
2018-May-17 22:00N 56°04' E 016°27'918.2
2018-May-17 21:30N 56°09' E 016°41'816.0
2018-May-17 21:00N 56°15' E 016°49'815.3
2018-May-17 20:30N 56°23' E 016°54'815.2
2018-May-17 20:00N 56°30' E 016°59'21414.6
2018-May-17 05:23N 59°46' E 019°42'615.6
2018-May-17 05:00N 59°50' E 019°34'815.6
2018-May-17 04:30N 59°56' E 019°24'816.5
2018-May-17 04:00N 60°03' E 019°13'918.3
2018-May-17 03:30N 60°10' E 019°02'918.2
2018-May-17 03:00N 60°19' E 018°60'815.0
2018-May-17 02:30N 60°26' E 018°59'7117.9
2018-May-16 22:33N 61°08' E 020°56'113.1
2018-May-16 22:28N 61°08' E 020°58'612.8
2018-May-16 22:00N 61°07' E 021°10'510.0
2018-May-16 21:30N 61°06' E 021°21'3 6.1
2018-May-16 21:01N 61°08' E 021°26'0 0.0
2018-May-16 20:30N 61°08' E 021°26'0 0.0
2018-May-16 19:57N 61°08' E 021°26'0 0.0
2018-May-16 19:23N 61°08' E 021°26'0 0.0
2018-May-16 18:52N 61°08' E 021°26'0 0.0
2018-May-16 18:24N 61°08' E 021°26'0 0.0
2018-May-16 17:55N 61°08' E 021°26'0 0.0
2018-May-16 17:22N 61°08' E 021°26'0 0.0
2018-May-16 16:53N 61°08' E 021°26'0 0.0
2018-May-16 16:28N 61°08' E 021°26'0 0.0
2018-May-16 15:55N 61°08' E 021°26'0 0.0
2018-May-16 15:24N 61°08' E 021°26'0 0.0
2018-May-16 14:58N 61°08' E 021°26'0 0.0
2018-May-16 14:27N 61°08' E 021°26'0 0.0
2018-May-16 13:55N 61°08' E 021°26'0 0.0
2018-May-16 13:27N 61°08' E 021°26'0 0.0
2018-May-16 12:51N 61°08' E 021°26'0 0.0
2018-May-16 12:24N 61°08' E 021°26'0 0.0
2018-May-16 11:56N 61°08' E 021°26'0 0.0
2018-May-16 11:29N 61°08' E 021°26'0 0.0
2018-May-16 10:56N 61°08' E 021°26'0 0.0
2018-May-16 10:26N 61°08' E 021°26'0 0.0
2018-May-16 09:56N 61°08' E 021°26'0 0.0
2018-May-16 09:26N 61°08' E 021°26'0 0.0
2018-May-16 08:53N 61°08' E 021°26'0 0.0
2018-May-16 08:23N 61°08' E 021°26'0 0.0
2018-May-16 07:56N 61°08' E 021°26'0 0.0
2018-May-16 07:17N 61°08' E 021°26'0 0.0
2018-May-16 06:59N 61°08' E 021°26'0 0.0
2018-May-16 06:29N 61°08' E 021°26'0 0.0
2018-May-16 05:50N 61°08' E 021°26'0 0.0
2018-May-16 05:29N 61°08' E 021°26'0 0.0
2018-May-16 04:56N 61°08' E 021°26'0 0.0
2018-May-16 04:28N 61°08' E 021°26'0 0.0
2018-May-16 03:58N 61°08' E 021°26'0 0.0
2018-May-16 03:29N 61°08' E 021°26'0 0.0
2018-May-16 02:59N 61°08' E 021°26'0 0.0
2018-May-16 02:26N 61°08' E 021°26'0 0.0
2018-May-16 01:56N 61°08' E 021°26'0 0.0
2018-May-16 01:26N 61°08' E 021°26'0 0.0
2018-May-16 00:59N 61°08' E 021°26'0 0.0
2018-May-16 00:18N 61°08' E 021°26'0 0.0
2018-May-15 23:56N 61°08' E 021°26'0 0.0
2018-May-15 23:26N 61°08' E 021°26'0 0.0
2018-May-15 22:56N 61°08' E 021°26'0 0.0
2018-May-15 22:29N 61°08' E 021°26'0 0.0
2018-May-15 21:50N 61°08' E 021°26'0 0.0
2018-May-15 21:26N 61°08' E 021°26'0 0.0
2018-May-15 20:50N 61°08' E 021°26'0 0.0
2018-May-15 20:29N 61°08' E 021°26'0 0.0
2018-May-15 19:58N 61°08' E 021°26'0 0.0
2018-May-15 19:29N 61°08' E 021°26'0 0.0
2018-May-15 18:55N 61°08' E 021°26'0 0.0
2018-May-15 18:21N 61°08' E 021°26'0 0.0
2018-May-15 17:59N 61°08' E 021°26'0 0.0
2018-May-15 17:28N 61°08' E 021°26'0 0.0
2018-May-15 16:55N 61°08' E 021°26'0 0.0
2018-May-15 16:27N 61°08' E 021°26'0 0.0
2018-May-15 15:59N 61°08' E 021°26'0 0.0
2018-May-15 15:29N 61°08' E 021°26'0 0.0
2018-May-15 14:54N 61°08' E 021°26'0 0.0
2018-May-15 14:29N 61°08' E 021°26'0 0.0
2018-May-15 13:54N 61°08' E 021°26'0 0.0
2018-May-15 13:29N 61°08' E 021°26'0 0.0
2018-May-15 12:59N 61°08' E 021°26'0 0.0
2018-May-15 12:24N 61°08' E 021°26'0 0.0
2018-May-15 11:59N 61°08' E 021°26'0 0.0
2018-May-15 11:23N 61°08' E 021°26'0 0.0
2018-May-15 10:50N 61°08' E 021°26'0 0.0
2018-May-15 10:23N 61°08' E 021°26'0 0.0
2018-May-15 09:50N 61°08' E 021°26'0 0.0
2018-May-15 09:08N 61°08' E 021°26'0 0.0
2018-May-15 08:59N 61°08' E 021°26'0 0.0
2018-May-15 08:26N 61°08' E 021°26'0 0.0
2018-May-15 07:56N 61°08' E 021°26'0 0.0
2018-May-15 07:25N 61°08' E 021°26'0 0.0
2018-May-15 06:59N 61°08' E 021°26'0 0.0
2018-May-15 06:30N 61°08' E 021°26'0 0.0
2018-May-15 05:45N 61°08' E 021°26'0 0.0
2018-May-15 05:26N 61°08' E 021°26'0 0.0
2018-May-15 04:58N 61°08' E 021°26'0 0.0
2018-May-15 04:21N 61°08' E 021°26'0 0.0
2018-May-15 03:58N 61°08' E 021°26'0 0.0
2018-May-15 03:29N 61°08' E 021°26'0 0.1
2018-May-15 03:00N 61°08' E 021°26'4 7.3
2018-May-15 02:29N 61°06' E 021°19'611.6
2018-May-15 01:59N 61°08' E 021°08'611.5
2018-May-15 01:28N 61°12' E 020°60'  
Track history (hours):
 
Tides and Currents Weather Stations Pressure Air Temp Water Temp Dewpoint Dewpoint Depression Visibility Wind Speed Wind Dir Waves Ship Positions

Slotergracht

Last reported at 2018-May-22 07:55 UTC. Time now 2018-May-23 10:35 UTC.
Position N 49°44' W 003°48'.

Length 168 m; beam 25 m.

Type: Cargo ship. MMSI: 246456000.

Date/timePositionNaut miles runAvg speedWind from/ knotsBaromVisibWave heightAir tempDewpointWater temp
2018-May-22 07:55N 49°44' W 003°48'718.2
2018-May-22 07:30N 49°47' W 003°38'918.8
2018-May-22 07:00N 49°51' W 003°25'1019.1
2018-May-22 06:31N 49°55' W 003°11'1019.2
2018-May-22 06:00N 49°59' W 002°58'918.9
2018-May-22 05:30N 50°02' W 002°44'1118.7
2018-May-22 04:57N 50°05' W 002°28'818.4
2018-May-22 04:30N 50°07' W 002°16'917.8
2018-May-22 04:00N 50°10' W 002°03'917.0
2018-May-22 03:30N 50°12' W 001°50'816.4
2018-May-22 03:00N 50°15' W 001°38'815.8
2018-May-22 02:30N 50°17' W 001°26'815.3
2018-May-22 02:00N 50°19' W 001°14'714.7
2018-May-22 01:30N 50°21' W 001°03'714.5
2018-May-22 01:00N 50°23' W 000°53'714.9
2018-May-22 00:30N 50°26' W 000°41'815.4
2018-May-22 00:00N 50°27' W 000°29'816.1
2018-May-21 23:30N 50°30' W 000°17'816.8
2018-May-21 23:00N 50°31' W 000°05'917.3
2018-May-21 22:30N 50°34' E 000°09'917.8
2018-May-21 22:00N 50°36' E 000°22'918.2
2018-May-21 21:30N 50°39' E 000°36'918.2
2018-May-21 21:00N 50°44' E 000°48'917.9
2018-May-21 20:30N 50°49' E 000°59'917.5
2018-May-21 20:00N 50°55' E 001°10'1016.9
2018-May-21 19:26N 51°01' E 001°21'716.2
2018-May-21 19:00N 51°06' E 001°30'815.6
2018-May-21 18:30N 51°11' E 001°39'815.2
2018-May-21 18:00N 51°16' E 001°47'816.0
2018-May-21 17:30N 51°23' E 001°54'816.3
2018-May-21 17:00N 51°30' E 002°01'816.7
2018-May-21 16:30N 51°36' E 002°10'917.1
2018-May-21 16:00N 51°42' E 002°20'917.7
2018-May-21 15:30N 51°49' E 002°29'1018.4
2018-May-21 14:59N 51°57' E 002°39'2418.9
2018-May-21 13:43N 52°15' E 003°04'419.0
2018-May-21 13:30N 52°18' E 003°08'1019.2
2018-May-21 13:00N 52°26' E 003°17'918.9
2018-May-21 12:31N 52°34' E 003°26'918.6
2018-May-21 12:01N 52°41' E 003°35'918.2
2018-May-21 11:30N 52°48' E 003°45'1417.4
2018-May-21 10:43N 52°58' E 004°01'416.9
2018-May-21 10:30N 53°00' E 004°06'816.6
2018-May-21 10:00N 53°06' E 004°16'915.8
2018-May-21 09:24N 53°13' E 004°26'615.8
2018-May-21 09:00N 53°19' E 004°30'815.9
2018-May-21 08:30N 53°26' E 004°36'816.0
2018-May-21 08:00N 53°31' E 004°46'816.8
2018-May-21 07:30N 53°34' E 004°59'917.6
2018-May-21 07:00N 53°37' E 005°13'918.5
2018-May-21 06:30N 53°40' E 005°28'918.6
2018-May-21 06:00N 53°43' E 005°43'1018.5
2018-May-21 05:29N 53°46' E 005°58'714.4
2018-May-21 05:00N 53°43' E 006°09'816.2
2018-May-21 04:30N 53°38' E 006°20'714.4
2018-May-21 03:59N 53°37' E 006°33'817.6
2018-May-21 03:31N 53°32' E 006°44'611.6
2018-May-21 03:00N 53°28' E 006°50'1 1.2
2018-May-21 02:30N 53°27' E 006°50'0 0.0
2018-May-21 01:58N 53°27' E 006°50'0 0.0
2018-May-21 01:25N 53°27' E 006°50'0 0.0
2018-May-21 00:58N 53°27' E 006°50'0 0.0
2018-May-21 00:25N 53°27' E 006°50'0 0.0
2018-May-20 23:58N 53°27' E 006°50'0 0.0
2018-May-20 23:28N 53°27' E 006°50'0 0.0
2018-May-20 22:58N 53°27' E 006°50'0 0.0
2018-May-20 22:28N 53°27' E 006°50'0 0.0
2018-May-20 21:58N 53°27' E 006°50'0 0.0
2018-May-20 21:28N 53°27' E 006°50'0 0.0
2018-May-20 20:55N 53°27' E 006°50'0 0.0
2018-May-20 20:19N 53°27' E 006°50'0 0.0
2018-May-20 19:55N 53°27' E 006°50'0 0.0
2018-May-20 19:18N 53°27' E 006°50'0 0.0
2018-May-20 19:00N 53°27' E 006°50'0 0.0
2018-May-20 18:30N 53°27' E 006°50'0 0.0
2018-May-20 18:00N 53°27' E 006°50'0 0.0
2018-May-20 17:24N 53°27' E 006°50'0 0.0
2018-May-20 17:00N 53°27' E 006°50'0 0.0
2018-May-20 16:24N 53°27' E 006°50'0 0.0
2018-May-20 16:00N 53°27' E 006°50'0 0.0
2018-May-20 15:30N 53°27' E 006°50'0 0.0
2018-May-20 14:57N 53°27' E 006°50'0 0.0
2018-May-20 14:30N 53°27' E 006°50'0 0.0
2018-May-20 14:00N 53°27' E 006°50'0 0.8
2018-May-20 13:30N 53°27' E 006°50'3 6.4
2018-May-20 13:00N 53°30' E 006°48'8210.5
2018-May-20 05:16N 54°51' E 006°34'517.4
2018-May-20 04:59N 54°56' E 006°34'817.4
2018-May-20 04:30N 55°05' E 006°35'917.5
2018-May-20 04:01N 55°13' E 006°38'917.5
2018-May-20 03:31N 55°22' E 006°41'917.5
2018-May-20 03:01N 55°30' E 006°48'917.6
2018-May-20 02:29N 55°38' E 006°55'917.8
2018-May-20 01:58N 55°46' E 007°02'817.8
2018-May-20 01:30N 55°54' E 007°08'917.7
2018-May-20 01:00N 56°02' E 007°15'2417.5
2018-May-19 23:38N 56°23' E 007°34'217.2
2018-May-19 23:30N 56°25' E 007°35'2317.2
2018-May-19 22:09N 56°47' E 007°53'417.1
2018-May-19 21:53N 56°51' E 007°57'1016.9
2018-May-19 21:18N 56°59' E 008°05'516.8
2018-May-19 20:59N 57°04' E 008°09'816.8
2018-May-19 20:29N 57°12' E 008°17'917.0
2018-May-19 19:56N 57°18' E 008°28'917.0
2018-May-19 19:23N 57°25' E 008°40'717.2
2018-May-19 18:59N 57°30' E 008°49'817.1
2018-May-19 18:31N 57°35' E 009°01'917.3
2018-May-19 18:00N 57°39' E 009°16'917.3
2018-May-19 17:30N 57°42' E 009°31'917.3
2018-May-19 17:00N 57°45' E 009°46'917.6
2018-May-19 16:30N 57°48' E 010°02'817.4
2018-May-19 16:00N 57°48' E 010°18'917.4
2018-May-19 15:31N 57°49' E 010°34'816.3
2018-May-19 15:01N 57°46' E 010°49'510.5
2018-May-19 14:31N 57°41' E 010°47'611.5
2018-May-19 14:00N 57°39' E 010°37'0 0.2
2018-May-19 13:30N 57°39' E 010°37'0 0.0
2018-May-19 13:00N 57°39' E 010°37'0 0.0
2018-May-19 12:30N 57°39' E 010°37'0 0.0
2018-May-19 12:00N 57°39' E 010°37'0 0.0
2018-May-19 11:30N 57°39' E 010°37'0 0.0
2018-May-19 11:00N 57°39' E 010°37'0 0.0
2018-May-19 10:30N 57°39' E 010°37'0 0.0
2018-May-19 10:00N 57°39' E 010°37'0 0.0
2018-May-19 09:30N 57°39' E 010°37'0 0.0
2018-May-19 09:00N 57°39' E 010°37'0 0.0
2018-May-19 08:30N 57°39' E 010°37'0 0.0
2018-May-19 08:00N 57°39' E 010°37'0 0.1
2018-May-19 07:30N 57°39' E 010°37'0 0.1
2018-May-19 07:00N 57°39' E 010°37'0 0.0
2018-May-19 06:30N 57°39' E 010°37'0 0.0
2018-May-19 06:00N 57°39' E 010°37'0 0.0
2018-May-19 05:30N 57°39' E 010°37'0 0.0
2018-May-19 05:00N 57°39' E 010°37'0 0.0
2018-May-19 04:30N 57°39' E 010°37'0 0.1
2018-May-19 04:00N 57°39' E 010°37'3 6.4
2018-May-19 03:31N 57°38' E 010°43'814.9
2018-May-19 03:00N 57°36' E 010°56'815.2
2018-May-19 02:31N 57°34' E 011°10'714.7
2018-May-19 02:01N 57°30' E 011°22'713.8
2018-May-19 01:30N 57°24' E 011°29'714.1
2018-May-19 01:00N 57°18' E 011°33'714.7
2018-May-19 00:30N 57°11' E 011°38'714.5
2018-May-19 00:00N 57°04' E 011°42'714.4
2018-May-18 23:30N 56°57' E 011°47'714.4
2018-May-18 23:00N 56°51' E 011°52'713.9
2018-May-18 22:29N 56°44' E 011°54'714.0
2018-May-18 22:00N 56°38' E 011°47'7813.3
2018-May-18 16:07N 55°24' E 011°00'214.9
2018-May-18 16:00N 55°23' E 011°02'714.9
2018-May-18 15:30N 55°16' E 011°05'713.1
2018-May-18 15:00N 55°10' E 011°01'917.2
2018-May-18 14:30N 55°01' E 010°59'816.1
2018-May-18 14:00N 54°54' E 010°52'714.8
2018-May-18 13:30N 54°47' E 010°49'713.9
2018-May-18 13:00N 54°40' E 010°49'815.8
2018-May-18 12:30N 54°36' E 011°00'815.2
2018-May-18 12:00N 54°35' E 011°13'815.8
2018-May-18 11:30N 54°32' E 011°26'815.2
2018-May-18 11:00N 54°29' E 011°38'714.4
2018-May-18 10:30N 54°26' E 011°50'814.8
2018-May-18 09:58N 54°26' E 012°03'1413.3
2018-May-18 08:54N 54°37' E 012°19'4015.0
2018-May-18 06:14N 54°55' E 013°21'615.5
2018-May-18 05:53N 54°57' E 013°30'615.4
2018-May-18 05:30N 54°59' E 013°39'1015.3
2018-May-18 04:52N 55°02' E 013°55'716.0
2018-May-18 04:24N 55°06' E 014°07'615.5
2018-May-18 04:00N 55°11' E 014°13'815.5
2018-May-18 03:30N 55°17' E 014°21'815.6
2018-May-18 03:00N 55°23' E 014°30'815.4
2018-May-18 02:30N 55°28' E 014°40'815.4
2018-May-18 02:00N 55°32' E 014°52'815.5
2018-May-18 01:30N 55°36' E 015°04'815.4
2018-May-18 01:00N 55°40' E 015°15'815.4
2018-May-18 00:30N 55°44' E 015°27'815.2
2018-May-18 00:00N 55°47' E 015°39'815.7
2018-May-17 23:30N 55°51' E 015°51'815.8
2018-May-17 23:00N 55°55' E 016°03'815.7
2018-May-17 22:30N 55°59' E 016°15'816.1
2018-May-17 22:00N 56°04' E 016°27'918.2
2018-May-17 21:30N 56°09' E 016°41'816.0
2018-May-17 21:00N 56°15' E 016°49'815.3
2018-May-17 20:30N 56°23' E 016°54'815.2
2018-May-17 20:00N 56°30' E 016°59'21414.6
2018-May-17 05:23N 59°46' E 019°42'615.6
2018-May-17 05:00N 59°50' E 019°34'815.6
2018-May-17 04:30N 59°56' E 019°24'816.5
2018-May-17 04:00N 60°03' E 019°13'918.3
2018-May-17 03:30N 60°10' E 019°02'918.2
2018-May-17 03:00N 60°19' E 018°60'815.0
2018-May-17 02:30N 60°26' E 018°59'7117.9
2018-May-16 22:33N 61°08' E 020°56'113.1
2018-May-16 22:28N 61°08' E 020°58'612.8
2018-May-16 22:00N 61°07' E 021°10'510.0
2018-May-16 21:30N 61°06' E 021°21'3 6.1
2018-May-16 21:01N 61°08' E 021°26'0 0.0
2018-May-16 20:30N 61°08' E 021°26'0 0.0
2018-May-16 19:57N 61°08' E 021°26'0 0.0
2018-May-16 19:23N 61°08' E 021°26'0 0.0
2018-May-16 18:52N 61°08' E 021°26'0 0.0
2018-May-16 18:24N 61°08' E 021°26'0 0.0
2018-May-16 17:55N 61°08' E 021°26'0 0.0
2018-May-16 17:22N 61°08' E 021°26'0 0.0
2018-May-16 16:53N 61°08' E 021°26'0 0.0
2018-May-16 16:28N 61°08' E 021°26'0 0.0
2018-May-16 15:55N 61°08' E 021°26'0 0.0
2018-May-16 15:24N 61°08' E 021°26'0 0.0
2018-May-16 14:58N 61°08' E 021°26'0 0.0
2018-May-16 14:27N 61°08' E 021°26'0 0.0
2018-May-16 13:55N 61°08' E 021°26'0 0.0
2018-May-16 13:27N 61°08' E 021°26'0 0.0
2018-May-16 12:51N 61°08' E 021°26'0 0.0
2018-May-16 12:24N 61°08' E 021°26'0 0.0
2018-May-16 11:56N 61°08' E 021°26'0 0.0
2018-May-16 11:29N 61°08' E 021°26'0 0.0
2018-May-16 10:56N 61°08' E 021°26'0 0.0
2018-May-16 10:26N 61°08' E 021°26'0 0.0
2018-May-16 09:56N 61°08' E 021°26'0 0.0
2018-May-16 09:26N 61°08' E 021°26'0 0.0
2018-May-16 08:53N 61°08' E 021°26'0 0.0
2018-May-16 08:23N 61°08' E 021°26'0 0.0
2018-May-16 07:56N 61°08' E 021°26'0 0.0
2018-May-16 07:17N 61°08' E 021°26'0 0.0
2018-May-16 06:59N 61°08' E 021°26'0 0.0
2018-May-16 06:29N 61°08' E 021°26'0 0.0
2018-May-16 05:50N 61°08' E 021°26'0 0.0
2018-May-16 05:29N 61°08' E 021°26'0 0.0
2018-May-16 04:56N 61°08' E 021°26'0 0.0
2018-May-16 04:28N 61°08' E 021°26'0 0.0
2018-May-16 03:58N 61°08' E 021°26'0 0.0
2018-May-16 03:29N 61°08' E 021°26'0 0.0
2018-May-16 02:59N 61°08' E 021°26'0 0.0
2018-May-16 02:26N 61°08' E 021°26'0 0.0
2018-May-16 01:56N 61°08' E 021°26'0 0.0
2018-May-16 01:26N 61°08' E 021°26'0 0.0
2018-May-16 00:59N 61°08' E 021°26'0 0.0
2018-May-16 00:18N 61°08' E 021°26'0 0.0
2018-May-15 23:56N 61°08' E 021°26'0 0.0
2018-May-15 23:26N 61°08' E 021°26'0 0.0
2018-May-15 22:56N 61°08' E 021°26'0 0.0
2018-May-15 22:29N 61°08' E 021°26'0 0.0
2018-May-15 21:50N 61°08' E 021°26'0 0.0
2018-May-15 21:26N 61°08' E 021°26'0 0.0
2018-May-15 20:50N 61°08' E 021°26'0 0.0
2018-May-15 20:29N 61°08' E 021°26'0 0.0
2018-May-15 19:58N 61°08' E 021°26'0 0.0
2018-May-15 19:29N 61°08' E 021°26'0 0.0
2018-May-15 18:55N 61°08' E 021°26'0 0.0
2018-May-15 18:21N 61°08' E 021°26'0 0.0
2018-May-15 17:59N 61°08' E 021°26'0 0.0
2018-May-15 17:28N 61°08' E 021°26'0 0.0
2018-May-15 16:55N 61°08' E 021°26'0 0.0
2018-May-15 16:27N 61°08' E 021°26'0 0.0
2018-May-15 15:59N 61°08' E 021°26'0 0.0
2018-May-15 15:29N 61°08' E 021°26'0 0.0
2018-May-15 14:54N 61°08' E 021°26'0 0.0
2018-May-15 14:29N 61°08' E 021°26'0 0.0
2018-May-15 13:54N 61°08' E 021°26'0 0.0
2018-May-15 13:29N 61°08' E 021°26'0 0.0
2018-May-15 12:59N 61°08' E 021°26'0 0.0
2018-May-15 12:24N 61°08' E 021°26'0 0.0
2018-May-15 11:59N 61°08' E 021°26'0 0.0
2018-May-15 11:23N 61°08' E 021°26'0 0.0
2018-May-15 10:50N 61°08' E 021°26'0 0.0
2018-May-15 10:23N 61°08' E 021°26'0 0.0
2018-May-15 09:50N 61°08' E 021°26'0 0.0
2018-May-15 09:08N 61°08' E 021°26'0 0.0
2018-May-15 08:59N 61°08' E 021°26'0 0.0
2018-May-15 08:26N 61°08' E 021°26'0 0.0
2018-May-15 07:56N 61°08' E 021°26'0 0.0
2018-May-15 07:25N 61°08' E 021°26'0 0.0
2018-May-15 06:59N 61°08' E 021°26'0 0.0
2018-May-15 06:30N 61°08' E 021°26'0 0.0
2018-May-15 05:45N 61°08' E 021°26'0 0.0
2018-May-15 05:26N 61°08' E 021°26'0 0.0
2018-May-15 04:58N 61°08' E 021°26'0 0.0
2018-May-15 04:21N 61°08' E 021°26'0 0.0
2018-May-15 03:58N 61°08' E 021°26'0 0.0
2018-May-15 03:29N 61°08' E 021°26'0 0.1
2018-May-15 03:00N 61°08' E 021°26'4 7.3
2018-May-15 02:29N 61°06' E 021°19'611.6
2018-May-15 01:59N 61°08' E 021°08'611.5
2018-May-15 01:28N 61°12' E 020°60'  

Dump ship's entire track history